Time;durP1;ratioP1;P1;durP2;ratioP2;P2;SDS_P1;SDS_P2;PMS_P1;PMS_P2;Temp;Humidity;BMP_temperature;BMP_pressure;BME280_temperature;BME280_humidity;BME280_pressure;Samples;Min_cycle;Max_cycle;Signal;HPM_P1;HPM_P2
2023/04/04 00:01:29;;;;;;;8.37;3.03;;;0.00;69.70;;;;;;5074328;28;20153;-77
2023/04/04 00:03:56;;;;;;;7.10;3.50;;;0.00;69.80;;;;;;5046383;28;20056;-77
2023/04/04 00:06:22;;;;;;;7.63;3.13;;;0.00;69.90;;;;;;5051120;28;20059;-76
2023/04/04 00:08:47;;;;;;;9.63;3.97;;;0.00;69.90;;;;;;5053951;28;20055;-76
2023/04/04 00:11:13;;;;;;;9.17;4.30;;;0.00;70.00;;;;;;5078089;28;20043;-77
2023/04/04 00:13:39;;;;;;;8.93;4.47;;;0.00;70.10;;;;;;5077075;28;20044;-77
2023/04/04 00:16:05;;;;;;;11.93;4.67;;;-0.10;70.00;;;;;;5056863;28;20178;-74
2023/04/04 00:18:31;;;;;;;10.67;5.00;;;-0.10;70.10;;;;;;5060982;28;20085;-76
2023/04/04 00:20:58;;;;;;;11.97;4.70;;;-0.10;70.10;;;;;;5061074;28;20525;-76
2023/04/04 00:23:24;;;;;;;9.40;5.07;;;-0.10;70.10;;;;;;5067475;28;20070;-77
2023/04/04 00:25:51;;;;;;;10.27;4.67;;;-0.10;70.30;;;;;;5078154;28;20071;-76
2023/04/04 00:28:18;;;;;;;10.13;4.60;;;-0.10;70.30;;;;;;5061557;28;20118;-77
2023/04/04 00:30:44;;;;;;;8.63;4.47;;;-0.10;70.40;;;;;;5077894;28;20126;-77
2023/04/04 00:33:10;;;;;;;10.23;4.97;;;-0.10;70.70;;;;;;5080528;28;20541;-76
2023/04/04 00:35:35;;;;;;;11.03;5.13;;;-0.10;70.70;;;;;;5053194;28;20177;-77
2023/04/04 00:38:01;;;;;;;12.33;4.20;;;-0.10;70.70;;;;;;5041588;28;20059;-76
2023/04/04 00:40:27;;;;;;;11.57;5.10;;;-0.10;70.70;;;;;;5091899;28;20105;-77
2023/04/04 00:42:53;;;;;;;7.80;4.87;;;-0.10;70.90;;;;;;5060078;28;20061;-77
2023/04/04 00:45:19;;;;;;;12.27;5.30;;;-0.10;70.90;;;;;;5077250;28;20048;-77
2023/04/04 00:47:46;;;;;;;12.93;5.20;;;-0.10;70.80;;;;;;5059857;28;20407;-77
2023/04/04 00:50:12;;;;;;;12.33;4.73;;;-0.10;70.80;;;;;;5057191;28;20040;-76
2023/04/04 00:52:37;;;;;;;14.07;4.47;;;-0.20;70.80;;;;;;5072548;28;20493;-77
2023/04/04 00:55:04;;;;;;;12.40;4.73;;;-0.20;70.90;;;;;;5077568;28;20054;-77
2023/04/04 00:57:31;;;;;;;11.77;4.97;;;-0.20;70.90;;;;;;5077197;28;20039;-76
2023/04/04 00:59:58;;;;;;;9.93;4.40;;;-0.20;71.00;;;;;;5093850;28;20051;-77
2023/04/04 01:02:25;;;;;;;8.83;4.67;;;-0.20;71.10;;;;;;5070592;28;20044;-77
2023/04/04 01:04:51;;;;;;;8.53;4.93;;;-0.20;71.20;;;;;;5081090;28;20051;-76
2023/04/04 01:07:18;;;;;;;10.93;4.77;;;-0.20;71.30;;;;;;5056549;28;20482;-77
2023/04/04 01:09:44;;;;;;;10.10;5.17;;;-0.20;71.20;;;;;;5048530;28;20073;-76
2023/04/04 01:12:10;;;;;;;11.93;5.20;;;-0.20;71.40;;;;;;5075360;28;20046;-77
2023/04/04 01:14:36;;;;;;;12.67;5.00;;;-0.20;71.50;;;;;;5093118;28;20116;-76
2023/04/04 01:17:02;;;;;;;12.97;5.13;;;-0.20;71.40;;;;;;5065152;27;20122;-77
2023/04/04 01:19:46;;;;;;;7.53;4.57;;;-0.20;71.40;;;;;;5058024;28;20134;-77
2023/04/04 01:22:13;;;;;;;11.30;4.77;;;-0.20;71.60;;;;;;5075922;28;20549;-77
2023/04/04 01:24:42;;;;;;;14.20;5.40;;;-0.20;71.80;;;;;;5068474;28;20127;-77
2023/04/04 01:27:07;;;;;;;7.50;4.83;;;-0.20;71.80;;;;;;5042795;28;20052;-76
2023/04/04 01:29:33;;;;;;;11.57;5.40;;;-0.30;71.70;;;;;;5073772;28;20051;-77
2023/04/04 01:32:08;;;;;;;11.40;5.83;;;-0.20;71.90;;;;;;5098070;28;20081;-77
2023/04/04 01:34:49;;;;;;;11.83;5.23;;;-0.20;72.10;;;;;;5073133;28;20105;-77
2023/04/04 01:37:29;;;;;;;9.20;5.50;;;-0.20;72.20;;;;;;5076871;28;20520;-77
2023/04/04 01:40:23;;;;;;;11.70;5.40;;;-0.30;72.00;;;;;;5093038;28;20105;-77
2023/04/04 01:42:51;;;;;;;14.73;5.87;;;-0.30;72.20;;;;;;5064927;28;20400;-76
2023/04/04 01:45:17;;;;;;;10.63;5.93;;;-0.30;72.10;;;;;;5093737;28;20375;-77
2023/04/04 01:47:43;;;;;;;14.07;5.70;;;-0.40;71.90;;;;;;5068743;28;20092;-77
2023/04/04 01:50:10;;;;;;;14.00;5.90;;;-0.40;72.00;;;;;;5078863;28;20044;-76
2023/04/04 01:52:36;;;;;;;14.57;5.93;;;-0.40;72.10;;;;;;5088783;28;20051;-76
2023/04/04 01:55:03;;;;;;;11.90;5.87;;;-0.40;72.10;;;;;;5056125;28;20088;-77
2023/04/04 01:57:29;;;;;;;12.53;5.70;;;-0.40;72.20;;;;;;5062241;28;20040;-77
2023/04/04 01:59:55;;;;;;;10.60;6.30;;;-0.50;72.20;;;;;;5086802;28;20466;-77
2023/04/04 02:02:21;;;;;;;14.47;6.57;;;-0.50;72.20;;;;;;5108227;28;20251;-77
2023/04/04 02:04:47;;;;;;;13.53;6.37;;;-0.50;72.30;;;;;;5075024;28;20470;-77
2023/04/04 02:07:13;;;;;;;12.97;6.53;;;-0.50;72.30;;;;;;5076178;28;20047;-76
2023/04/04 02:09:39;;;;;;;12.17;6.43;;;-0.60;72.30;;;;;;5073499;28;20052;-77
2023/04/04 02:12:05;;;;;;;11.63;6.23;;;-0.60;72.40;;;;;;5054592;28;20082;-76
2023/04/04 02:14:31;;;;;;;14.33;6.60;;;-0.60;72.50;;;;;;5072482;28;20570;-77
2023/04/04 02:16:57;;;;;;;11.37;6.30;;;-0.60;72.60;;;;;;5047565;27;20054;-77
2023/04/04 02:19:23;;;;;;;10.27;5.90;;;-0.60;72.40;;;;;;5091773;28;20048;-77
2023/04/04 02:21:49;;;;;;;10.87;5.47;;;-0.60;72.30;;;;;;5074948;28;20047;-77
2023/04/04 02:24:15;;;;;;;11.63;5.63;;;-0.70;72.20;;;;;;5057528;28;20059;-77
2023/04/04 02:26:41;;;;;;;8.50;5.30;;;-0.70;72.30;;;;;;5054185;28;20095;-77
2023/04/04 02:29:06;;;;;;;14.93;6.20;;;-0.70;72.50;;;;;;5040454;28;20093;-77
2023/04/04 02:31:33;;;;;;;13.80;5.63;;;-0.90;72.50;;;;;;5053728;28;20441;-77
2023/04/04 02:33:58;;;;;;;12.07;6.13;;;-0.90;72.50;;;;;;5076315;28;20082;-77
2023/04/04 02:36:24;;;;;;;13.07;5.70;;;-0.90;72.40;;;;;;5066071;28;20596;-77
2023/04/04 02:38:50;;;;;;;16.30;5.83;;;-0.90;72.50;;;;;;5042132;28;20044;-77
2023/04/04 02:41:16;;;;;;;12.00;5.60;;;-0.90;72.40;;;;;;5075157;28;20312;-77
2023/04/04 02:43:42;;;;;;;10.47;5.60;;;-0.90;72.30;;;;;;5060788;28;20062;-76
2023/04/04 02:46:08;;;;;;;12.10;6.03;;;-0.90;72.20;;;;;;5078661;28;20050;-76
2023/04/04 02:48:35;;;;;;;10.90;5.10;;;-0.90;72.20;;;;;;5064653;28;20058;-76
2023/04/04 02:51:00;;;;;;;10.60;5.33;;;-1.00;72.10;;;;;;5063485;28;20036;-77
2023/04/04 02:53:27;;;;;;;9.93;5.07;;;-1.00;72.10;;;;;;5073536;28;20054;-76
2023/04/04 02:55:53;;;;;;;7.53;4.73;;;-1.00;72.00;;;;;;5074865;28;20055;-76
2023/04/04 02:58:18;;;;;;;13.33;5.00;;;-1.10;71.80;;;;;;5041567;28;20405;-77
2023/04/04 03:00:46;;;;;;;7.83;4.60;;;-1.10;71.80;;;;;;5055561;28;20133;-77
2023/04/04 03:03:11;;;;;;;6.30;4.80;;;-1.10;71.80;;;;;;5037814;28;20051;-76
2023/04/04 03:05:37;;;;;;;11.23;5.20;;;-1.20;71.80;;;;;;5058517;28;20035;-77
2023/04/04 03:08:03;;;;;;;9.87;5.43;;;-1.20;71.90;;;;;;5024923;28;20054;-77
2023/04/04 03:10:29;;;;;;;8.27;5.10;;;-1.30;72.00;;;;;;5041957;28;20047;-77
2023/04/04 03:12:56;;;;;;;8.50;4.67;;;-1.30;72.10;;;;;;5056285;28;20118;-76
2023/04/04 03:15:22;;;;;;;10.50;5.40;;;-1.30;72.20;;;;;;5074868;28;20100;-77
2023/04/04 03:17:48;;;;;;;10.13;5.33;;;-1.30;72.20;;;;;;5057289;28;20048;-77
2023/04/04 03:20:13;;;;;;;8.43;5.43;;;-1.40;72.30;;;;;;5069428;28;20056;-76
2023/04/04 03:22:40;;;;;;;7.87;4.60;;;-1.40;72.30;;;;;;5059668;28;20467;-77
2023/04/04 03:25:07;;;;;;;11.90;4.13;;;-1.50;72.10;;;;;;5074655;28;20130;-77
2023/04/04 03:27:33;;;;;;;7.70;4.60;;;-1.50;71.90;;;;;;5049706;28;20524;-77
2023/04/04 03:29:59;;;;;;;8.60;4.87;;;-1.50;71.80;;;;;;5081596;28;20036;-77
2023/04/04 03:32:26;;;;;;;11.90;5.00;;;-1.50;71.80;;;;;;5082168;28;20047;-77
2023/04/04 03:34:52;;;;;;;9.60;4.93;;;-1.50;71.90;;;;;;5065405;28;20062;-77
2023/04/04 03:37:18;;;;;;;6.70;4.47;;;-1.50;71.90;;;;;;5025943;28;20059;-76
2023/04/04 03:39:43;;;;;;;11.10;4.70;;;-1.60;71.80;;;;;;5073695;28;20043;-76
2023/04/04 03:42:09;;;;;;;12.57;4.67;;;-1.60;71.80;;;;;;5063482;28;20048;-76
2023/04/04 03:44:38;;;;;;;8.13;4.53;;;-1.50;71.80;;;;;;5067923;28;20050;-77
2023/04/04 03:47:04;;;;;;;12.10;5.00;;;-1.50;71.90;;;;;;5058310;28;20051;-76
2023/04/04 03:49:31;;;;;;;10.03;4.57;;;-1.50;71.70;;;;;;5058000;28;20174;-77
2023/04/04 03:51:57;;;;;;;10.50;5.27;;;-1.50;71.70;;;;;;5071238;28;20130;-76
2023/04/04 03:54:23;;;;;;;7.97;4.70;;;-1.50;71.60;;;;;;5054717;28;20075;-76
2023/04/04 03:56:50;;;;;;;8.30;5.17;;;-1.50;71.60;;;;;;5057467;28;20461;-77
2023/04/04 03:59:16;;;;;;;11.40;4.90;;;-1.50;71.70;;;;;;5072462;28;20131;-76
2023/04/04 04:01:42;;;;;;;8.83;4.70;;;-1.60;71.60;;;;;;5073297;28;20134;-77
2023/04/04 04:04:07;;;;;;;12.90;5.03;;;-1.60;71.50;;;;;;5057635;28;20122;-77
2023/04/04 04:06:33;;;;;;;11.00;5.07;;;-1.60;71.60;;;;;;5031367;28;20416;-76
2023/04/04 04:09:00;;;;;;;11.40;5.33;;;-1.60;71.70;;;;;;5061627;28;20039;-76
2023/04/04 04:11:25;;;;;;;9.70;5.13;;;-1.70;71.70;;;;;;5056360;28;20120;-77
2023/04/04 04:13:51;;;;;;;8.67;5.07;;;-1.70;71.60;;;;;;5078520;28;20127;-77
2023/04/04 04:16:17;;;;;;;10.80;5.03;;;-1.70;71.70;;;;;;5051207;28;20043;-76
2023/04/04 04:18:42;;;;;;;9.73;5.57;;;-1.70;71.80;;;;;;5058511;28;20059;-76
2023/04/04 04:21:08;;;;;;;13.50;5.83;;;-1.60;71.80;;;;;;5053356;28;20036;-77
2023/04/04 04:23:34;;;;;;;12.77;5.23;;;-1.60;71.80;;;;;;5062516;28;20056;-77
2023/04/04 04:26:00;;;;;;;12.00;5.27;;;-1.60;71.90;;;;;;5064225;28;20051;-77
2023/04/04 04:28:25;;;;;;;7.37;5.33;;;-1.60;71.90;;;;;;5040699;28;20063;-76
2023/04/04 04:30:51;;;;;;;13.10;5.50;;;-1.60;72.10;;;;;;5093411;28;20044;-77
2023/04/04 04:33:20;;;;;;;10.03;5.47;;;-1.60;72.00;;;;;;5081390;28;20166;-77
2023/04/04 04:35:45;;;;;;;11.70;5.83;;;-1.60;72.00;;;;;;5070471;28;20174;-77
2023/04/04 04:38:11;;;;;;;10.00;5.07;;;-1.60;72.10;;;;;;5043919;28;20062;-77
2023/04/04 04:40:37;;;;;;;10.70;5.80;;;-1.60;72.20;;;;;;5076892;28;20047;-76
2023/04/04 04:43:03;;;;;;;10.33;5.80;;;-1.70;72.00;;;;;;5084432;28;20105;-76
2023/04/04 04:45:28;;;;;;;10.60;5.60;;;-1.70;72.00;;;;;;5071609;28;20101;-77
2023/04/04 04:47:54;;;;;;;9.60;6.23;;;-1.70;72.20;;;;;;5043702;28;20427;-77
2023/04/04 04:50:20;;;;;;;10.37;5.50;;;-1.70;72.10;;;;;;5076935;28;20047;-77
2023/04/04 04:52:45;;;;;;;12.97;5.93;;;-1.60;72.10;;;;;;5057844;28;20048;-77
2023/04/04 04:55:11;;;;;;;14.43;5.90;;;-1.70;72.10;;;;;;5092936;28;20197;-77
2023/04/04 04:57:37;;;;;;;10.87;5.27;;;-1.70;72.00;;;;;;5049751;28;20075;-76
2023/04/04 05:00:04;;;;;;;13.03;5.80;;;-1.60;72.00;;;;;;5060194;28;20063;-77
2023/04/04 05:02:30;;;;;;;11.00;5.87;;;-1.70;72.00;;;;;;5074036;28;20074;-77
2023/04/04 05:04:56;;;;;;;9.30;5.47;;;-1.60;72.10;;;;;;5076362;28;20071;-77
2023/04/04 05:07:22;;;;;;;10.50;5.77;;;-1.60;72.10;;;;;;5077228;28;20127;-77
2023/04/04 05:09:49;;;;;;;10.97;5.63;;;-1.60;72.00;;;;;;5074066;28;20040;-76
2023/04/04 05:12:15;;;;;;;12.07;5.43;;;-1.50;72.00;;;;;;5077426;28;20044;-76
2023/04/04 05:14:40;;;;;;;8.43;5.27;;;-1.60;71.80;;;;;;5076147;28;20106;-76
2023/04/04 05:17:06;;;;;;;13.23;5.43;;;-1.60;71.80;;;;;;5065266;27;20035;-76
2023/04/04 05:19:32;;;;;;;12.90;5.73;;;-1.50;71.80;;;;;;5099745;28;20048;-76
2023/04/04 05:21:58;;;;;;;11.90;5.60;;;-1.60;71.80;;;;;;5044756;28;20047;-76
2023/04/04 05:24:24;;;;;;;11.33;5.63;;;-1.50;71.90;;;;;;5097284;28;20055;-76
2023/04/04 05:26:50;;;;;;;11.17;5.80;;;-1.50;71.90;;;;;;5079459;27;20054;-76
2023/04/04 05:29:15;;;;;;;12.67;5.37;;;-1.50;71.90;;;;;;5094575;28;20039;-76
2023/04/04 05:31:41;;;;;;;11.13;5.60;;;-1.40;72.00;;;;;;5056873;28;20055;-76
2023/04/04 05:34:07;;;;;;;17.93;7.27;;;-1.30;72.00;;;;;;5067398;28;20130;-76
2023/04/04 05:36:34;;;;;;;11.17;5.67;;;-1.30;72.00;;;;;;5062311;28;20062;-76
2023/04/04 05:39:00;;;;;;;14.33;6.50;;;-1.30;71.90;;;;;;5074554;28;20085;-76
2023/04/04 05:41:26;;;;;;;11.37;5.70;;;-1.10;71.90;;;;;;5093737;28;20043;-76
2023/04/04 05:43:51;;;;;;;12.27;5.93;;;-1.10;72.00;;;;;;5075278;28;20055;-76
2023/04/04 05:46:17;;;;;;;12.77;6.00;;;-1.10;71.90;;;;;;5065555;28;20264;-76
2023/04/04 05:48:43;;;;;;;12.60;6.50;;;-1.00;71.90;;;;;;5070586;28;20048;-76
2023/04/04 05:51:09;;;;;;;15.83;6.50;;;-0.90;72.00;;;;;;5075250;28;20031;-76
2023/04/04 05:53:35;;;;;;;11.10;6.33;;;-0.90;71.90;;;;;;5069784;28;20081;-76
2023/04/04 05:56:01;;;;;;;14.03;6.27;;;-0.90;71.80;;;;;;5058755;28;20401;-76
2023/04/04 05:58:26;;;;;;;14.83;5.90;;;-0.70;72.00;;;;;;5059323;28;20040;-76
2023/04/04 06:00:52;;;;;;;14.37;5.90;;;-0.60;72.30;;;;;;5074120;28;20062;-76
2023/04/04 06:03:18;;;;;;;12.03;6.07;;;-0.40;72.40;;;;;;5040489;28;20051;-76
2023/04/04 06:05:48;;;;;;;9.63;5.53;;;-0.30;72.30;;;;;;5076148;28;20097;-76
2023/04/04 06:08:14;;;;;;;10.30;5.70;;;-0.10;72.30;;;;;;5058739;28;20499;-76
2023/04/04 06:10:40;;;;;;;11.10;6.27;;;0.00;72.30;;;;;;5076054;28;20122;-76
2023/04/04 06:13:06;;;;;;;9.90;5.93;;;0.20;72.20;;;;;;5054130;28;20499;-76
2023/04/04 06:15:31;;;;;;;9.90;5.80;;;0.50;72.30;;;;;;5079612;28;20133;-76
2023/04/04 06:17:57;;;;;;;16.93;6.00;;;0.80;72.40;;;;;;5046000;28;20409;-76
2023/04/04 06:20:23;;;;;;;11.90;5.40;;;1.10;72.30;;;;;;5092919;28;20040;-76
2023/04/04 06:22:48;;;;;;;8.70;5.20;;;1.40;72.00;;;;;;5074382;28;20039;-76
2023/04/04 06:25:14;;;;;;;13.93;5.37;;;1.60;71.70;;;;;;5075241;28;20393;-76
2023/04/04 06:27:41;;;;;;;9.80;4.90;;;1.80;71.50;;;;;;5074838;28;20058;-76
2023/04/04 06:30:07;;;;;;;8.33;4.43;;;1.90;71.30;;;;;;5058992;28;20051;-76
2023/04/04 06:32:33;;;;;;;8.50;4.97;;;1.90;71.20;;;;;;5067733;28;20044;-76
2023/04/04 06:34:59;;;;;;;12.13;4.77;;;2.00;71.20;;;;;;5045061;28;20048;-76
2023/04/04 06:37:25;;;;;;;11.13;4.67;;;2.10;71.10;;;;;;5058963;28;20711;-76
2023/04/04 06:39:51;;;;;;;8.70;4.20;;;2.20;71.10;;;;;;5075124;28;20097;-76
2023/04/04 06:42:16;;;;;;;8.87;4.40;;;2.30;71.10;;;;;;5090143;28;20398;-76
2023/04/04 06:44:42;;;;;;;9.27;4.57;;;2.30;70.50;;;;;;5074685;28;20108;-76
2023/04/04 06:47:08;;;;;;;8.70;4.60;;;2.30;71.00;;;;;;5025832;28;20110;-77
2023/04/04 06:49:34;;;;;;;8.40;4.37;;;2.40;70.90;;;;;;5071495;28;20050;-76
2023/04/04 06:52:00;;;;;;;12.27;5.10;;;2.40;71.00;;;;;;5057299;28;20035;-76
2023/04/04 06:54:26;;;;;;;11.93;5.37;;;2.50;71.00;;;;;;5057066;28;20493;-76
2023/04/04 06:56:51;;;;;;;8.70;4.70;;;2.80;70.90;;;;;;5040281;28;20401;-77
2023/04/04 06:59:17;;;;;;;6.70;4.13;;;2.90;70.30;;;;;;5040140;28;20540;-77
2023/04/04 07:01:44;;;;;;;9.10;4.10;;;3.10;70.50;;;;;;5085625;28;20054;-76
2023/04/04 07:04:10;;;;;;;7.60;4.30;;;3.30;70.00;;;;;;5072374;28;20048;-76
2023/04/04 07:06:36;;;;;;;7.27;3.97;;;3.50;69.70;;;;;;5060264;28;20062;-76
2023/04/04 07:09:03;;;;;;;8.17;4.00;;;3.60;69.20;;;;;;5071411;28;20499;-77
2023/04/04 07:11:29;;;;;;;9.90;4.00;;;3.70;68.60;;;;;;5041037;28;20121;-76
2023/04/04 07:13:55;;;;;;;7.30;3.50;;;3.80;68.30;;;;;;5073196;28;20044;-76
2023/04/04 07:16:21;;;;;;;9.87;4.27;;;3.90;67.70;;;;;;5045534;28;20410;-75
2023/04/04 07:18:46;;;;;;;6.90;4.03;;;3.90;67.50;;;;;;5070052;28;20048;-76
2023/04/04 07:21:12;;;;;;;11.80;3.53;;;3.90;67.70;;;;;;5043128;28;20044;-76
2023/04/04 07:23:38;;;;;;;8.20;3.33;;;3.90;67.50;;;;;;5072781;28;20145;-76
2023/04/04 07:26:05;;;;;;;9.70;4.30;;;4.00;67.50;;;;;;5057260;28;20115;-76
2023/04/04 07:28:31;;;;;;;9.30;3.40;;;4.00;66.80;;;;;;5048890;28;20048;-76
2023/04/04 07:31:02;;;;;;;9.37;3.60;;;4.10;67.00;;;;;;5073164;28;20093;-76
2023/04/04 07:33:28;;;;;;;7.10;3.13;;;4.20;66.60;;;;;;5068610;28;20040;-76
2023/04/04 07:35:54;;;;;;;7.07;3.30;;;4.30;66.50;;;;;;5058537;28;20383;-76
2023/04/04 07:38:20;;;;;;;8.67;3.10;;;4.30;65.80;;;;;;5039137;28;20044;-76
2023/04/04 07:40:48;;;;;;;6.83;3.23;;;4.50;65.50;;;;;;5072382;28;20394;-76
2023/04/04 07:43:14;;;;;;;7.90;3.30;;;4.60;65.60;;;;;;5089445;28;20056;-76
2023/04/04 07:45:40;;;;;;;8.53;3.20;;;4.70;65.50;;;;;;5057166;28;20418;-76
2023/04/04 07:48:06;;;;;;;6.13;3.40;;;4.70;65.00;;;;;;5056580;28;20051;-76
2023/04/04 07:50:32;;;;;;;11.00;3.70;;;4.90;65.10;;;;;;5054746;28;20051;-76
2023/04/04 07:52:58;;;;;;;6.17;2.93;;;5.30;65.20;;;;;;5070204;28;20055;-76
2023/04/04 07:55:24;;;;;;;7.13;3.30;;;5.70;64.30;;;;;;5058273;28;20047;-77
2023/04/04 07:57:51;;;;;;;7.73;2.80;;;6.10;63.50;;;;;;5056823;28;20458;-76
2023/04/04 08:00:20;;;;;;;6.83;3.33;;;6.20;63.10;;;;;;5091336;28;20051;-76
2023/04/04 08:02:53;;;;;;;7.87;3.07;;;6.10;63.10;;;;;;5084001;28;20048;-76
2023/04/04 08:05:19;;;;;;;7.30;2.87;;;5.90;63.10;;;;;;5074679;28;20040;-76
2023/04/04 08:07:45;;;;;;;6.10;3.20;;;6.10;63.40;;;;;;5050042;28;20047;-76
2023/04/04 08:10:11;;;;;;;6.53;2.77;;;6.40;63.50;;;;;;5077085;28;20043;-76
2023/04/04 08:12:38;;;;;;;7.73;2.80;;;6.40;62.20;;;;;;5077592;28;20421;-76
2023/04/04 08:15:04;;;;;;;5.57;2.57;;;6.20;62.10;;;;;;5095009;28;20054;-75
2023/04/04 08:17:30;;;;;;;7.70;2.67;;;6.30;62.40;;;;;;5069939;27;20420;-76
2023/04/04 08:19:56;;;;;;;5.67;2.63;;;7.00;61.30;;;;;;5067941;28;20043;-76
2023/04/04 08:22:22;;;;;;;4.47;2.30;;;7.80;61.00;;;;;;5092571;28;20429;-76
2023/04/04 08:24:48;;;;;;;6.60;2.60;;;8.00;59.90;;;;;;5057441;28;20048;-76
2023/04/04 08:27:16;;;;;;;6.03;2.37;;;7.70;60.30;;;;;;5041474;28;20044;-76
2023/04/04 08:29:44;;;;;;;4.03;2.00;;;7.50;60.20;;;;;;5074389;28;20043;-76
2023/04/04 08:32:10;;;;;;;4.57;1.80;;;8.10;60.40;;;;;;5082726;28;20116;-76
2023/04/04 08:34:36;;;;;;;5.77;2.20;;;8.80;59.80;;;;;;5076220;28;20087;-76
2023/04/04 08:37:01;;;;;;;4.67;2.07;;;9.10;59.20;;;;;;5061817;28;20461;-76
2023/04/04 08:39:27;;;;;;;4.63;2.10;;;8.90;58.40;;;;;;5112135;28;20060;-76
2023/04/04 08:42:01;;;;;;;5.47;2.03;;;8.50;58.80;;;;;;5061459;28;20057;-76
2023/04/04 08:44:28;;;;;;;5.53;1.97;;;8.40;58.20;;;;;;5111117;28;20151;-76
2023/04/04 08:46:55;;;;;;;5.27;1.77;;;8.60;58.20;;;;;;5073803;28;20046;-77
2023/04/04 08:49:22;;;;;;;4.07;1.50;;;9.00;58.10;;;;;;5085871;28;20083;-76
2023/04/04 08:51:48;;;;;;;4.87;2.00;;;9.20;56.90;;;;;;5084443;28;20040;-76
2023/04/04 08:54:16;;;;;;;8.67;2.17;;;9.10;57.00;;;;;;5093446;28;20048;-76
2023/04/04 08:56:42;;;;;;;5.07;1.73;;;8.90;56.80;;;;;;5067225;28;20050;-74
2023/04/04 08:59:10;;;;;;;5.77;1.70;;;8.70;56.70;;;;;;5109255;28;20489;-76
2023/04/04 09:01:36;;;;;;;8.27;2.03;;;8.80;56.50;;;;;;5094408;28;20047;-76
2023/04/04 09:04:03;;;;;;;4.13;2.00;;;8.80;56.60;;;;;;5100871;28;20123;-76
2023/04/04 09:06:29;;;;;;;7.40;2.13;;;8.70;56.50;;;;;;5041261;28;20050;-76
2023/04/04 09:08:58;;;;;;;7.47;2.03;;;8.60;56.50;;;;;;5106318;28;20435;-76
2023/04/04 09:11:26;;;;;;;4.67;1.60;;;8.30;56.30;;;;;;5111382;28;20239;-76
2023/04/04 09:13:53;;;;;;;3.57;1.40;;;8.20;56.60;;;;;;5092515;28;20067;-76
2023/04/04 09:16:19;;;;;;;6.40;1.70;;;8.00;56.60;;;;;;5082611;28;20130;-75
2023/04/04 09:18:45;;;;;;;6.53;2.03;;;7.90;56.60;;;;;;5115288;27;20213;-76
2023/04/04 09:21:11;;;;;;;4.13;1.47;;;7.80;56.60;;;;;;5056902;28;20056;-76
2023/04/04 09:23:37;;;;;;;4.50;1.60;;;7.60;56.50;;;;;;5091977;28;20547;-76
2023/04/04 09:26:04;;;;;;;4.83;1.70;;;7.60;56.00;;;;;;5111390;28;20040;-76
2023/04/04 09:28:31;;;;;;;4.33;1.50;;;7.50;56.00;;;;;;5061739;28;20133;-76
2023/04/04 09:31:00;;;;;;;5.73;1.80;;;7.60;56.30;;;;;;5093543;28;20127;-76
2023/04/04 09:33:26;;;;;;;4.93;1.63;;;8.00;55.30;;;;;;5079795;28;20405;-76
2023/04/04 09:36:02;;;;;;;5.63;1.77;;;8.10;54.90;;;;;;5093087;28;20135;-76
2023/04/04 09:38:30;;;;;;;5.47;1.90;;;8.10;54.60;;;;;;5077639;28;20160;-76
2023/04/04 09:40:56;;;;;;;4.43;1.33;;;8.10;55.50;;;;;;5091252;28;20051;-76
2023/04/04 09:43:25;;;;;;;7.40;1.80;;;8.00;55.50;;;;;;5092244;28;20058;-75
2023/04/04 09:45:53;;;;;;;3.83;1.97;;;8.00;55.30;;;;;;5075463;28;20570;-76
2023/04/04 09:48:26;;;;;;;4.50;1.63;;;7.90;55.10;;;;;;5092419;28;20051;-76
2023/04/04 09:50:52;;;;;;;4.93;1.60;;;7.80;54.60;;;;;;5078784;28;20187;-75
2023/04/04 09:53:18;;;;;;;6.10;1.70;;;7.70;55.30;;;;;;5074751;28;20498;-75
2023/04/04 09:55:54;;;;;;;5.80;1.70;;;7.60;54.90;;;;;;5091133;28;20054;-76
2023/04/04 09:58:26;;;;;;;4.83;1.50;;;7.50;55.20;;;;;;5075652;28;20040;-76
2023/04/04 10:00:53;;;;;;;;;;;7.60;55.30;;;;;;5094004;28;20062;-75
2023/04/04 10:03:21;;;;;;;6.30;1.70;;;7.60;54.10;;;;;;5087956;28;19927;-76
2023/04/04 10:05:55;;;;;;;6.63;2.00;;;7.80;55.70;;;;;;5060878;28;20047;-75
2023/04/04 10:08:21;;;;;;;4.90;1.90;;;8.00;54.80;;;;;;5094351;28;20355;-76
2023/04/04 10:10:50;;;;;;;6.93;2.10;;;8.10;55.00;;;;;;5091833;28;20089;-76
2023/04/04 10:13:27;;;;;;;5.20;2.00;;;8.60;54.50;;;;;;5091784;28;20070;-76
2023/04/04 10:15:54;;;;;;;8.37;2.20;;;9.40;54.30;;;;;;5111034;28;20127;-76
2023/04/04 10:18:29;;;;;;;4.17;1.90;;;9.80;53.60;;;;;;5050153;28;20058;-76
2023/04/04 10:20:56;;;;;;;7.33;2.17;;;10.10;53.20;;;;;;5069628;28;20561;-76
2023/04/04 10:23:26;;;;;;;7.73;2.37;;;10.40;52.90;;;;;;5109825;28;20047;-76
2023/04/04 10:25:56;;;;;;;4.00;2.20;;;10.40;53.40;;;;;;5091543;28;20062;-76
2023/04/04 10:28:23;;;;;;;6.67;1.97;;;10.30;53.30;;;;;;5074583;28;20044;-76
2023/04/04 10:31:11;;;;;;;4.60;2.23;;;10.40;52.80;;;;;;5089643;28;20048;-76
2023/04/04 10:33:48;;;;;;;5.93;2.70;;;11.00;52.80;;;;;;5091039;28;20067;-76
2023/04/04 10:36:21;;;;;;;4.13;2.40;;;11.40;52.10;;;;;;5066243;28;20054;-76
2023/04/04 10:38:57;;;;;;;5.32;2.78;;;11.40;52.40;;;;;;5106913;28;20090;-76
2023/04/04 10:41:26;;;;;;;4.13;2.28;;;11.40;52.70;;;;;;5109688;28;20040;-76
2023/04/04 10:43:58;;;;;;;6.57;2.83;;;11.10;52.10;;;;;;5098053;28;20079;-76
2023/04/04 10:46:29;;;;;;;6.13;3.00;;;10.80;52.00;;;;;;5078128;28;20659;-76
2023/04/04 10:48:59;;;;;;;5.35;3.30;;;10.40;52.60;;;;;;5076617;28;20165;-76
2023/04/04 10:51:25;;;;;;;8.27;2.97;;;10.40;52.90;;;;;;5086630;28;20441;-76
2023/04/04 10:53:52;;;;;;;6.27;3.10;;;10.30;52.60;;;;;;5090603;28;20047;-76
2023/04/04 10:56:18;;;;;;;4.77;2.67;;;10.30;52.70;;;;;;5081361;28;20044;-76
2023/04/04 10:58:44;;;;;;;5.20;2.50;;;10.30;52.80;;;;;;5086146;28;20066;-76
2023/04/04 11:01:15;;;;;;;7.70;2.97;;;10.30;52.60;;;;;;5109974;28;20456;-76
2023/04/04 11:04:16;;;;;;;5.28;2.60;;;10.30;53.00;;;;;;5071253;28;20054;-77
2023/04/04 11:07:08;;;;;;;7.90;3.17;;;10.40;51.90;;;;;;5095612;28;20076;-75
2023/04/04 11:09:54;;;;;;;6.47;3.17;;;10.20;51.60;;;;;;5104022;28;20082;-77
2023/04/04 11:12:32;;;;;;;5.40;3.07;;;10.00;52.40;;;;;;5109181;28;20043;-76
2023/04/04 11:15:02;;;;;;;9.30;2.97;;;10.00;52.90;;;;;;5074156;28;20083;-76
2023/04/04 11:18:00;;;;;;;6.37;3.27;;;10.00;53.30;;;;;;5081738;28;20352;-76
2023/04/04 11:20:30;;;;;;;10.13;3.57;;;10.00;52.40;;;;;;5058359;28;20062;-77
2023/04/04 11:23:05;;;;;;;6.33;2.80;;;10.10;52.90;;;;;;5091237;28;20122;-77
2023/04/04 11:25:35;;;;;;;8.07;3.60;;;10.20;53.10;;;;;;5091804;28;20501;-76
2023/04/04 11:28:26;;;;;;;7.00;3.13;;;10.30;53.30;;;;;;5047204;28;20056;-76
2023/04/04 11:31:20;;;;;;;7.45;3.03;;;10.30;51.50;;;;;;5072050;28;20500;-76
2023/04/04 11:33:59;;;;;;;5.07;2.87;;;10.40;52.00;;;;;;5087432;28;20050;-76
2023/04/04 11:36:34;;;;;;;8.03;3.23;;;10.40;52.00;;;;;;5061126;28;20503;-75
2023/04/04 11:39:27;;;;;;;8.03;3.50;;;10.60;52.40;;;;;;5076108;28;20063;-76
2023/04/04 11:41:57;;;;;;;6.63;3.13;;;10.90;52.60;;;;;;5094511;28;20048;-76
2023/04/04 11:44:29;;;;;;;8.67;3.23;;;11.10;52.50;;;;;;5112190;28;20062;-76
2023/04/04 11:47:09;;;;;;;6.80;3.10;;;11.00;52.70;;;;;;5062749;28;20047;-76
2023/04/04 11:49:37;;;;;;;7.10;3.57;;;11.00;51.80;;;;;;5105883;28;20044;-76
2023/04/04 11:52:08;;;;;;;9.13;3.40;;;11.00;52.60;;;;;;5075626;28;20102;-75
2023/04/04 11:54:34;;;;;;;5.45;2.83;;;11.00;52.50;;;;;;5095380;28;20067;-76
2023/04/04 11:57:02;;;;;;;6.18;3.08;;;11.00;52.40;;;;;;5079939;28;20131;-76
2023/04/04 11:59:29;;;;;;;5.75;2.95;;;11.10;51.90;;;;;;5112402;28;20102;-76
2023/04/04 12:01:55;;;;;;;7.05;3.15;;;11.40;52.00;;;;;;5078620;28;20396;-75
2023/04/04 12:04:21;;;;;;;5.82;3.17;;;11.50;51.90;;;;;;5069717;28;20070;-75
2023/04/04 12:06:52;;;;;;;5.13;2.80;;;11.70;51.50;;;;;;5079790;28;20409;-75
2023/04/04 12:09:19;;;;;;;8.10;2.38;;;11.50;51.70;;;;;;5093178;28;20079;-76
2023/04/04 12:11:48;;;;;;;6.37;2.60;;;11.50;51.50;;;;;;5077873;28;20040;-76
2023/04/04 12:14:18;;;;;;;4.97;2.40;;;11.30;51.10;;;;;;5112701;28;20051;-75
2023/04/04 12:16:54;;;;;;;7.23;2.70;;;11.10;51.10;;;;;;5081759;27;20552;-75
2023/04/04 12:19:22;;;;;;;7.70;2.70;;;11.10;50.60;;;;;;5096707;28;20052;-75
2023/04/04 12:21:49;;;;;;;5.63;2.70;;;11.00;50.90;;;;;;5067112;28;20134;-75
2023/04/04 12:24:16;;;;;;;4.13;2.43;;;11.10;51.20;;;;;;5082674;28;20101;-75
2023/04/04 12:26:44;;;;;;;4.77;2.43;;;11.10;50.90;;;;;;5074026;28;20151;-75
2023/04/04 12:29:12;;;;;;;4.50;2.40;;;11.10;51.70;;;;;;5091361;28;20031;-75
2023/04/04 12:31:43;;;;;;;6.40;2.60;;;11.20;51.40;;;;;;5095766;28;20384;-75
2023/04/04 12:34:23;;;;;;;5.38;2.42;;;11.30;51.10;;;;;;5092557;28;20389;-75
2023/04/04 12:36:51;;;;;;;6.00;2.70;;;11.00;49.70;;;;;;5094031;28;21219;-75
2023/04/04 12:39:19;;;;;;;6.27;2.60;;;10.90;51.30;;;;;;5099150;27;20581;-75
2023/04/04 12:42:01;;;;;;;4.27;2.40;;;10.80;51.40;;;;;;5095906;27;20776;-75
2023/04/04 12:44:31;;;;;;;7.00;2.83;;;10.80;50.00;;;;;;5095147;28;20543;-75
2023/04/04 12:46:59;;;;;;;5.00;2.20;;;10.60;51.00;;;;;;5073880;28;20043;-75
2023/04/04 12:49:29;;;;;;;7.97;2.53;;;10.70;51.90;;;;;;5103670;28;20097;-75